Terminal Aerodrome Forecast
Issued by NWS Denver/Boulder, CO

Home | Current Version | Previous Version | Text Only | Print | Product List | Glossary On
Versions: 1 2 3 4 5 6 7 8 9 10 11 12 13 14 15 16 17 18 19 20 21 22 23 24 25 26 27 28 29 30
000
FTUS45 KBOU 190355 AAC
TAFDEN
TAF AMD
KDEN 190355Z 1904/2006 18013KT P6SM FEW220
     FM190600 21012KT P6SM FEW220
     FM191400 25008KT P6SM FEW120 BKN220
     FM191800 22008KT P6SM FEW100 BKN220
     FM192100 17014KT P6SM FEW100 SCT220
     FM200100 19008KT P6SM FEW220=

USA.gov is the U.S. government's official web portal to all federal, state and local government web resources and services.